Latest Weather Observations for Geelong Racecourse

IDV60801

Issued at 11:05 am EDT Saturday 29 November 2014 (issued every 30 minutes, with the page automatically refreshed every 10 minutes)

About weather observations | Map of weather stations | Latest weather observations for VIC | Other Formats
Station Details ID: 087184 Name: GEELONG RACECOURSE Lat: -38.17 Lon: 144.38 Height: 12.9 m
Data from the previous 72 hours. | See also: Recent months at Geelong Racecourse
Date/Time
EDT
Temp
°C
App
Temp
°C
Dew
Point
Rel
Hum
%
Delta-T
°C
Wind Press
QNH
hPa
Press
MSL
hPa
Rain
since 9 am
mm
Dir
 
Spd
km/h
Gust
km/h
Spd
kts
Gust
kts
29/11:00am 19.2 18.7 12.7 66 3.6 NNE 7 15 4 8 1016.1 1016.1 0.0
29/10:30am 17.9 17.4 12.1 69 3.2 E 6 11 3 6 1016.7 1016.7 0.0
29/10:00am 16.5 15.8 12.1 75 2.4 SE 7 11 4 6 1017.1 1017.1 0.0
29/09:30am 15.7 15.1 12.3 80 1.9 E 7 11 4 6 1017.5 1017.5 0.0
29/09:00am 14.8 14.1 12.1 84 1.5 ENE 7 15 4 8 1017.8 1017.8 0.0
29/08:30am 14.1 13.5 12.3 89 1.0 ENE 7 13 4 7 1018.0 1018.0 0.0
29/08:00am 13.4 13.4 12.3 93 0.6 NE 4 6 2 3 1018.1 1018.1 0.0
29/07:30am 12.3 12.7 11.2 93 0.6 CALM 0 0 0 0 1018.1 1018.1 0.0
29/07:00am 10.9 10.9 9.8 93 0.6 CALM 0 0 0 0 1018.1 1018.1 0.0
29/06:30am 9.7 9.0 8.6 93 0.5 SSW 2 2 1 1 1018.0 1018.0 0.0
29/06:00am 9.1 7.9 8.0 93 0.5 S 4 4 2 2 1018.0 1018.0 0.0
29/05:30am 9.4 8.3 8.3 93 0.5 SSW 4 4 2 2 1018.0 1018.0 0.0
29/05:00am 9.1 8.3 8.0 93 0.5 SSW 2 4 1 2 1017.8 1017.8 0.0
29/04:30am 9.6 8.9 8.5 93 0.5 SSW 2 4 1 2 1017.7 1017.7 0.0
29/04:00am 10.3 9.0 9.2 93 0.5 SSW 6 6 3 3 1017.8 1017.8 0.0
29/03:30am 10.5 9.3 9.4 93 0.5 S 6 7 3 4 1017.7 1017.7 0.0
29/03:00am 10.9 9.8 9.8 93 0.6 S 6 7 3 4 1018.0 1018.0 0.0
29/02:30am 10.9 9.6 9.8 93 0.6 S 7 9 4 5 1018.3 1018.3 0.0
29/02:00am 10.5 9.3 9.4 93 0.5 S 6 7 3 4 1018.3 1018.3 0.0
29/01:30am 10.1 9.1 8.9 92 0.6 S 4 6 2 3 1018.6 1018.6 0.0
29/01:00am 10.5 9.6 9.3 92 0.6 S 4 7 2 4 1019.0 1019.0 0.0
29/12:30am 11.0 9.9 9.8 92 0.6 S 6 9 3 5 1019.3 1019.3 0.0
29/12:00am 11.4 10.3 10.1 92 0.7 SSE 6 7 3 4 1019.8 1019.8 0.0
 
Date/Time
EDT
Temp
°C
App
Temp
°C
Dew
Point
Rel
Hum
%
Delta-T
°C
Wind Press
QNH
hPa
Press
MSL
hPa
Rain
since 9 am
mm
Dir
 
Spd
km/h
Gust
km/h
Spd
kts
Gust
kts
28/11:30pm 11.6 10.4 10.3 92 0.7 S 7 9 4 5 1020.4 1020.4 0.0
28/11:00pm 11.7 10.6 10.1 90 0.8 SSE 6 7 3 4 1020.6 1020.6 0.0
28/10:30pm 11.9 10.2 10.0 88 1.0 S 9 11 5 6 1020.9 1020.9 0.0
28/10:00pm 12.3 10.3 10.0 86 1.2 S 11 15 6 8 1021.0 1021.0 0.0
28/09:30pm 12.4 9.5 9.6 83 1.4 S 15 19 8 10 1020.8 1020.8 0.0
28/09:00pm 12.9 9.6 9.5 80 1.7 S 17 24 9 13 1020.7 1020.7 0.0
28/08:30pm 13.5 9.8 9.4 76 2.1 S 19 28 10 15 1020.6 1020.6 0.0
28/08:00pm 14.1 10.4 9.3 73 2.4 S 19 28 10 15 1020.6 1020.6 0.0
28/07:30pm 14.6 10.7 9.4 71 2.7 S 20 30 11 16 1020.5 1020.5 0.0
28/07:00pm 15.3 11.0 9.4 68 3.0 SSE 22 32 12 17 1020.6 1020.6 0.0
28/06:30pm 15.7 11.5 9.6 67 3.2 S 22 32 12 17 1020.2 1020.2 0.0
28/06:00pm 16.1 11.7 9.1 63 3.6 S 22 30 12 16 1020.2 1020.2 0.0
28/05:30pm 16.4 12.0 8.9 61 3.9 S 22 32 12 17 1020.2 1020.2 0.0
28/05:00pm 16.8 12.8 9.2 61 3.9 S 20 30 11 16 1020.4 1020.4 0.0
28/04:30pm 17.0 13.3 9.4 61 4.0 S 19 26 10 14 1020.5 1020.5 0.0
28/04:00pm 17.0 13.6 9.2 60 4.0 S 17 24 9 13 1020.8 1020.8 0.0
28/03:30pm 17.0 13.5 8.7 58 4.3 SSE 17 22 9 12 1021.2 1021.2 0.0
28/03:00pm 16.9 12.8 8.8 59 4.2 S 20 28 11 15 1021.5 1021.5 0.0
28/02:30pm 17.8 13.9 8.6 55 4.7 S 19 26 10 14 1021.5 1021.5 0.0
28/02:00pm 17.1 13.5 8.3 56 4.5 S 17 28 9 15 1022.1 1022.1 0.0
28/01:30pm 17.7 14.9 8.6 55 4.7 SSE 13 17 7 9 1022.6 1022.6 0.0
28/01:00pm 17.4 14.6 8.5 56 4.5 S 13 26 7 14 1022.9 1022.9 0.0
28/12:30pm 17.8 14.7 8.9 56 4.6 S 15 24 8 13 1022.9 1022.9 0.0
28/12:00pm 17.3 14.2 9.0 58 4.3 SSE 15 24 8 13 1023.2 1023.2 0.0
28/11:30am 17.2 14.4 8.6 57 4.4 S 13 24 7 13 1023.3 1023.3 0.0
28/11:00am 17.6 15.3 9.0 57 4.4 S 11 22 6 12 1023.4 1023.4 0.0
28/10:30am 16.8 15.0 8.0 56 4.5 SSE 7 19 4 10 1023.6 1023.6 0.0
28/10:00am 16.3 14.3 8.5 60 4.0 SSE 9 15 5 8 1024.1 1024.1 0.0
28/09:30am 15.4 13.7 8.4 63 3.5 S 7 15 4 8 1024.4 1024.4 0.0
28/09:00am 15.6 13.0 7.9 60 3.8 SE 11 19 6 10 1024.5 1024.5 0.0
28/08:30am 14.2 11.1 7.3 63 3.4 SE 13 19 7 10 1024.4 1024.4 0.0
28/08:00am 14.0 11.8 8.0 67 3.0 SSE 9 13 5 7 1024.4 1024.4 0.0
28/07:30am 13.5 10.9 7.9 69 2.8 S 11 17 6 9 1024.3 1024.3 0.0
28/07:00am 13.2 11.5 8.5 73 2.3 SSE 7 9 4 5 1024.0 1024.0 0.0
28/06:30am 12.4 10.7 8.3 76 2.0 SSE 7 11 4 6 1023.7 1023.7 0.0
28/06:00am 12.4 10.3 8.3 76 2.0 S 9 13 5 7 1023.5 1023.5 0.0
28/05:30am 12.1 10.4 8.4 78 1.8 S 7 11 4 6 1023.4 1023.4 0.0
28/05:00am 11.9 10.2 8.2 78 1.8 S 7 9 4 5 1023.2 1023.2 0.0
28/04:30am 12.2 10.1 8.3 77 1.9 S 9 15 5 8 1022.8 1022.8 0.0
28/04:00am 12.4 10.4 8.5 77 1.9 S 9 13 5 7 1022.9 1022.9 0.0
28/03:30am 12.4 10.3 8.3 76 2.0 SSE 9 15 5 8 1022.7 1022.7 0.0
28/03:00am 12.5 10.9 8.6 77 1.9 SSE 7 13 4 7 1022.8 1022.8 0.0
28/02:30am 12.6 11.0 8.9 78 1.9 SSE 7 11 4 6 1022.9 1022.9 0.0
28/02:00am 12.5 10.9 8.8 78 1.8 SSE 7 15 4 8 1023.2 1023.2 0.0
28/01:30am 12.4 10.8 8.9 79 1.8 SSE 7 9 4 5 1023.5 1023.5 0.0
28/01:00am 12.4 11.4 8.9 79 1.7 SE 4 7 2 4 1023.8 1023.8 0.0
28/12:30am 12.4 11.1 9.1 80 1.7 SE 6 9 3 5 1024.4 1024.4 0.0
28/12:00am 12.4 11.1 9.1 80 1.7 SSE 6 9 3 5 1024.5 1024.5 0.0
 
Date/Time
EDT
Temp
°C
App
Temp
°C
Dew
Point
Rel
Hum
%
Delta-T
°C
Wind Press
QNH
hPa
Press
MSL
hPa
Rain
since 9 am
mm
Dir
 
Spd
km/h
Gust
km/h
Spd
kts
Gust
kts
27/11:30pm 12.3 10.9 8.8 79 1.7 S 6 11 3 6 1024.6 1024.6 0.0
27/11:00pm 12.6 10.2 8.5 76 2.0 SSE 11 17 6 9 1024.8 1024.8 0.0
27/10:30pm 12.8 10.4 8.7 76 2.0 SSE 11 17 6 9 1025.1 1025.1 0.0
27/10:00pm 12.8 10.0 8.5 75 2.1 SSE 13 20 7 11 1025.0 1025.0 0.0
27/09:30pm 12.8 11.2 8.9 77 2.0 SSE 7 17 4 9 1025.0 1025.0 0.0
27/09:00pm 12.6 10.6 8.7 77 1.9 S 9 11 5 6 1025.0 1025.0 0.0
27/08:30pm 12.8 10.7 8.1 73 2.3 S 9 13 5 7 1024.9 1024.9 0.0
27/08:00pm 13.4 9.7 8.0 70 2.7 SSE 17 24 9 13 1024.8 1024.8 0.0
27/07:30pm 14.1 10.4 8.1 67 3.0 S 17 24 9 13 1024.8 1024.8 0.0
27/07:00pm 14.5 9.9 8.0 65 3.2 SSE 22 30 12 16 1024.8 1024.8 0.0
27/06:30pm 14.9 10.5 7.5 61 3.7 SSE 20 32 11 17 1024.8 1024.8 0.0
27/06:00pm 15.6 11.5 7.9 60 3.8 SSE 19 30 10 16 1024.8 1024.8 0.0
27/05:30pm 15.4 11.1 7.7 60 3.8 S 20 28 11 15 1025.0 1025.0 0.0
27/05:00pm 15.6 11.3 7.9 60 3.8 SSE 20 35 11 19 1025.1 1025.1 0.0
27/04:30pm 16.2 12.0 7.4 56 4.4 S 19 28 10 15 1025.1 1025.1 0.0
27/04:00pm 16.4 12.1 7.9 57 4.3 S 20 33 11 18 1025.3 1025.3 0.0
27/03:30pm 15.9 11.6 7.7 58 4.1 SSE 20 30 11 16 1025.4 1025.4 0.0
27/03:00pm 16.3 12.1 7.3 55 4.5 S 19 28 10 15 1025.7 1025.7 0.0
27/02:30pm 16.1 11.8 7.1 55 4.5 S 19 26 10 14 1025.9 1025.9 0.0
27/02:00pm 16.2 11.8 7.2 55 4.4 SSE 20 30 11 16 1025.9 1025.9 0.0
27/01:30pm 16.6 12.4 7.5 55 4.6 SSE 19 32 10 17 1025.9 1025.9 0.0
27/01:00pm 16.0 11.4 6.7 54 4.5 SSE 20 37 11 20 1026.0 1026.0 0.0
27/12:30pm 16.3 12.4 7.0 54 4.6 SSE 17 30 9 16 1026.1 1026.1 0.0
27/12:00pm 16.0 12.2 7.5 57 4.2 SE 17 22 9 12 1026.3 1026.3 0.0
27/11:30am 15.8 11.5 6.8 55 4.4 S 19 26 10 14 1026.5 1026.5 0.0
27/11:00am 15.2 10.8 6.7 57 4.1 SSE 19 28 10 15 1026.6 1026.6 0.0
27/10:30am 15.1 10.6 6.1 55 4.3 S 19 28 10 15 1026.7 1026.7 0.0
27/10:00am 15.5 11.1 6.5 55 4.4 S 19 30 10 16 1026.7 1026.7 0.0
27/09:30am 14.6 10.5 6.4 58 4.0 S 17 24 9 13 1026.7 1026.7 0.0
27/09:00am 14.1 11.2 6.5 60 3.6 SSE 11 17 6 9 1026.6 1026.6 0.0
27/08:30am 14.0 10.6 5.9 58 3.8 SE 13 20 7 11 1026.5 1026.5 0.0
27/08:00am 13.8 10.7 5.4 57 3.9 S 11 15 6 8 1026.3 1026.3 0.0
27/07:30am 13.2 9.7 5.6 60 3.6 SSE 13 20 7 11 1026.1 1026.1 0.0
27/07:00am 12.9 9.9 5.8 62 3.3 SSE 11 19 6 10 1025.8 1025.8 0.0
27/06:30am 12.6 10.4 6.2 65 3.0 SSW 7 11 4 6 1025.5 1025.5 0.0
27/06:00am 12.5 9.9 6.1 65 3.0 S 9 15 5 8 1025.1 1025.1 0.0
27/05:30am 12.3 10.0 5.9 65 3.0 S 7 9 4 5 1024.9 1024.9 0.0
27/05:00am 12.3 10.0 5.7 64 3.1 S 7 9 4 5 1024.6 1024.6 0.0
27/04:30am 12.3 10.0 5.5 63 3.2 S 7 11 4 6 1024.5 1024.5 0.0
27/04:00am 12.4 8.9 5.3 62 3.3 S 13 19 7 10 1024.3 1024.3 0.0
27/03:30am 12.5 9.9 5.9 64 3.1 SSE 9 13 5 7 1024.1 1024.1 0.0
27/03:00am 12.5 9.8 5.7 63 3.2 S 9 13 5 7 1024.2 1024.2 0.0
27/02:30am 12.7 10.0 5.6 62 3.3 S 9 17 5 9 1024.3 1024.3 0.0
27/02:00am 12.9 10.7 6.3 64 3.1 SSW 7 11 4 6 1024.3 1024.3 0.0
27/01:30am 13.1 10.9 6.0 62 3.4 SSW 7 11 4 6 1024.4 1024.4 0.0
27/01:00am 13.1 10.6 6.5 64 3.1 S 9 13 5 7 1024.8 1024.8 0.0
27/12:30am 13.1 10.9 5.5 60 3.6 S 6 9 3 5 1024.9 1024.9 0.0
27/12:00am 13.2 10.5 5.6 60 3.5 S 9 13 5 7 1025.1 1025.1 0.0
 
Date/Time
EDT
Temp
°C
App
Temp
°C
Dew
Point
Rel
Hum
%
Delta-T
°C
Wind Press
QNH
hPa
Press
MSL
hPa
Rain
since 9 am
mm
Dir
 
Spd
km/h
Gust
km/h
Spd
kts
Gust
kts
26/11:30pm 13.4 10.0 6.0 61 3.5 S 13 20 7 11 1024.9 1024.9 0.0
26/11:00pm 13.4 10.1 6.5 63 3.3 SSW 13 19 7 10 1025.0 1025.0 0.0
26/10:30pm 13.6 10.1 7.2 65 3.1 SSW 15 20 8 11 1024.8 1024.8 0.0
26/10:00pm 13.7 10.0 7.9 68 2.9 S 17 24 9 13 1024.5 1024.5 0.0
26/09:30pm 13.9 10.3 8.3 69 2.8 S 17 24 9 13 1024.2 1024.2 0.0
26/09:00pm 13.9 10.8 8.7 71 2.6 S 15 20 8 11 1023.9 1023.9 0.0
26/08:30pm 14.1 10.6 8.7 70 2.7 S 17 28 9 15 1023.7 1023.7 0.0
26/08:00pm 14.1 9.6 8.5 69 2.8 S 22 32 12 17 1023.5 1023.5 0.0
26/07:30pm 14.6 10.2 8.8 68 2.9 S 22 32 12 17 1023.4 1023.4 0.0
26/07:00pm 15.1 9.9 8.8 66 3.2 S 26 33 14 18 1022.9 1022.9 0.0
26/06:30pm 15.2 10.0 8.9 66 3.2 S 26 33 14 18 1022.6 1022.6 0.0
26/06:00pm 15.6 11.2 9.1 65 3.3 S 22 35 12 19 1022.4 1022.4 0.0
26/05:30pm 15.7 11.3 9.1 65 3.4 S 22 35 12 19 1022.4 1022.4 0.0
26/05:00pm 15.6 11.4 9.7 68 3.1 S 22 32 12 17 1022.3 1022.3 0.0
26/04:30pm 15.9 12.2 10.2 69 3.0 S 20 30 11 16 1022.3 1022.3 0.0
26/04:00pm 16.3 12.7 10.6 69 3.0 S 20 30 11 16 1022.3 1022.3 0.0
26/03:30pm 14.8 12.0 12.5 86 1.3 S 19 24 10 13 1022.3 1022.3 0.0
26/03:00pm 14.6 11.5 13.3 92 0.7 S 22 28 12 15 1022.3 1022.3 0.0
26/02:30pm 15.0 11.6 13.7 92 0.7 S 24 30 13 16 1022.2 1022.2 0.0
26/02:00pm 15.9 12.0 13.2 84 1.5 S 26 33 14 18 1022.0 1022.0 0.0
26/01:30pm 17.0 13.4 11.7 71 2.9 S 22 30 12 16 1021.6 1021.6 0.0
26/01:00pm 18.6 15.3 9.7 56 4.7 WSW 17 22 9 12 1021.4 1021.4 0.0
26/12:30pm 19.6 16.4 9.8 53 5.2 WSW 17 30 9 16 1021.3 1021.3 0.0
26/12:00pm 19.6 16.8 10.0 54 5.1 SW 15 24 8 13 1021.4 1021.4 0.0
26/11:30am 18.5 15.3 9.8 57 4.6 WSW 17 26 9 14 1021.5 1021.5 0.0

Other Formats:

Comma delimited format used in spreadsheet applications
http://www.bom.gov.au/fwo/IDV60801/IDV60801.94857.axf

JavaScript Object Notation format (JSON) in row-major order
http://www.bom.gov.au/fwo/IDV60801/IDV60801.94857.json